createdAt,value
2023-05-05T00:00:07.861Z,89.36
2023-05-05T00:01:07.680Z,89.25
2023-05-05T00:02:08.395Z,89.25
2023-05-05T00:03:07.763Z,89.60
2023-05-05T00:04:07.703Z,89.70
2023-05-05T00:05:07.660Z,89.81
2023-05-05T00:06:07.642Z,90.32
2023-05-05T00:07:07.659Z,90.12
2023-05-05T00:08:07.661Z,89.91
2023-05-05T00:09:07.623Z,90.01
2023-05-05T00:10:07.891Z,90.01
2023-05-05T00:11:07.615Z,90.12
2023-05-05T00:12:07.617Z,89.91
2023-05-05T00:13:07.624Z,90.16
2023-05-05T00:14:07.582Z,89.91
2023-05-05T00:15:07.585Z,90.12
2023-05-05T00:16:07.577Z,90.22
2023-05-05T00:17:07.642Z,90.12
2023-05-05T00:18:07.725Z,90.22
2023-05-05T00:19:07.572Z,90.42
2023-05-05T00:20:07.797Z,90.22
2023-05-05T00:21:07.578Z,90.12
2023-05-05T00:22:07.548Z,90.12
2023-05-05T00:23:07.542Z,89.81
2023-05-05T00:24:07.509Z,90.01
2023-05-05T00:25:07.506Z,89.91
2023-05-05T00:26:07.522Z,90.42
2023-05-05T00:27:07.491Z,89.91
2023-05-05T00:28:07.500Z,90.32
2023-05-05T00:29:07.477Z,90.01
2023-05-05T00:30:07.639Z,89.91
2023-05-05T00:31:07.550Z,89.75
2023-05-05T00:32:07.464Z,89.91
2023-05-05T00:33:07.478Z,90.06
2023-05-05T00:34:07.444Z,89.95
2023-05-05T00:35:07.474Z,90.06
2023-05-05T00:36:07.458Z,90.06
2023-05-05T00:37:07.430Z,89.85
2023-05-05T00:38:07.412Z,89.75
2023-05-05T00:39:07.412Z,89.75
2023-05-05T00:40:07.596Z,90.06
2023-05-05T00:41:07.384Z,90.16
2023-05-05T00:42:07.383Z,90.06
2023-05-05T00:43:07.384Z,90.09
2023-05-05T00:44:07.404Z,90.30
2023-05-05T00:45:07.383Z,90.41
2023-05-05T00:46:07.410Z,90.41
2023-05-05T00:47:07.346Z,90.66
2023-05-05T00:48:07.366Z,91.06
2023-05-05T00:49:07.387Z,90.96
2023-05-05T00:50:07.491Z,91.06
2023-05-05T00:51:07.308Z,91.27
2023-05-05T00:52:07.343Z,91.38
2023-05-05T00:53:07.302Z,91.17
2023-05-05T00:54:07.311Z,91.47
2023-05-05T00:55:07.343Z,91.17
2023-05-05T00:56:07.272Z,91.17
2023-05-05T00:57:07.271Z,91.17
2023-05-05T00:58:07.258Z,91.31
2023-05-05T00:59:07.300Z,91.17
2023-05-05T01:00:07.416Z,91.38
2023-05-05T01:01:07.268Z,91.06
2023-05-05T01:02:07.235Z,91.17
2023-05-05T01:03:07.325Z,91.83
2023-05-05T01:04:07.283Z,92.76
2023-05-05T01:05:07.219Z,92.55
2023-05-05T01:06:07.196Z,92.44
2023-05-05T01:07:07.188Z,92.96
2023-05-05T01:08:07.225Z,92.34
2023-05-05T01:09:07.170Z,91.47
2023-05-05T01:10:19.102Z,91.78
2023-05-05T01:11:09.150Z,91.58
2023-05-05T01:12:07.145Z,91.42
2023-05-05T01:13:07.247Z,91.21
2023-05-05T01:14:07.141Z,91.47
2023-05-05T01:15:07.124Z,91.17
2023-05-05T01:16:07.130Z,91.17
2023-05-05T01:17:07.114Z,91.27
2023-05-05T01:18:07.185Z,91.42
2023-05-05T01:19:07.105Z,91.93
2023-05-05T01:20:07.272Z,91.72
2023-05-05T01:21:07.111Z,91.83
2023-05-05T01:22:07.309Z,91.62
2023-05-05T01:23:08.102Z,91.72
2023-05-05T01:24:07.092Z,91.72
2023-05-05T01:25:07.053Z,91.72
2023-05-05T01:26:07.093Z,91.27
2023-05-05T01:27:07.066Z,91.06
2023-05-05T01:28:07.035Z,91.42
2023-05-05T01:29:07.026Z,91.58
2023-05-05T01:30:07.298Z,91.42
2023-05-05T01:31:07.005Z,91.06
2023-05-05T01:32:07.038Z,91.11
2023-05-05T01:33:06.989Z,91.27
2023-05-05T01:34:06.992Z,91.58
2023-05-05T01:35:06.970Z,91.58
2023-05-05T01:36:06.987Z,91.42
2023-05-05T01:37:06.981Z,92.14
2023-05-05T01:38:06.950Z,92.14
2023-05-05T01:39:07.423Z,92.86
2023-05-05T01:40:07.162Z,92.80
2023-05-05T01:41:06.976Z,92.86
2023-05-05T01:42:06.922Z,92.76
2023-05-05T01:43:06.923Z,92.86
2023-05-05T01:44:06.904Z,92.96
2023-05-05T01:45:06.898Z,92.96
2023-05-05T01:46:06.973Z,92.76
2023-05-05T01:47:06.878Z,92.86
2023-05-05T01:48:06.882Z,93.11
2023-05-05T01:49:06.875Z,92.65
2023-05-05T01:50:06.945Z,92.96
2023-05-05T01:51:06.900Z,92.14
2023-05-05T01:52:06.848Z,92.14
2023-05-05T01:53:06.829Z,92.29
2023-05-05T01:54:06.826Z,92.18
2023-05-05T01:55:06.851Z,92.38
2023-05-05T01:56:06.838Z,92.69
2023-05-05T01:57:06.801Z,92.90
2023-05-05T01:58:06.811Z,93.35
2023-05-05T01:59:06.788Z,94.13
2023-05-05T02:00:07.009Z,94.55
2023-05-05T02:01:06.792Z,94.34
2023-05-05T02:02:06.790Z,94.55
2023-05-05T02:03:06.902Z,94.13
2023-05-05T02:04:06.778Z,94.13
2023-05-05T02:05:06.765Z,94.45
2023-05-05T02:06:32.264Z,93.83
2023-05-05T02:07:06.726Z,94.34
2023-05-05T02:08:06.716Z,94.09
2023-05-05T02:09:06.803Z,93.58
2023-05-05T02:10:06.883Z,93.31
2023-05-05T02:11:06.692Z,93.52
2023-05-05T02:12:06.705Z,93.83
2023-05-05T02:13:06.782Z,93.73
2023-05-05T02:14:06.711Z,94.03
2023-05-05T02:15:06.663Z,94.13
2023-05-05T02:16:06.688Z,94.34
2023-05-05T02:17:06.655Z,94.03
2023-05-05T02:18:06.815Z,94.24
2023-05-05T02:19:06.657Z,93.68
2023-05-05T02:20:06.983Z,93.48
2023-05-05T02:21:06.616Z,93.58
2023-05-05T02:22:06.625Z,93.37
2023-05-05T02:23:06.638Z,93.06
2023-05-05T02:24:06.619Z,92.96
2023-05-05T02:25:06.611Z,92.24
2023-05-05T02:26:06.585Z,92.86
2023-05-05T02:27:06.589Z,92.86
2023-05-05T02:28:06.599Z,92.86
2023-05-05T02:29:06.565Z,92.92
2023-05-05T02:30:06.864Z,92.20
2023-05-05T02:31:06.581Z,92.14
2023-05-05T02:32:57.332Z,92.03
2023-05-05T02:33:06.687Z,92.14
2023-05-05T02:34:07.400Z,92.40
2023-05-05T02:35:09.399Z,92.71
2023-05-05T02:36:06.521Z,92.10
2023-05-05T02:37:06.533Z,91.89
2023-05-05T02:38:06.520Z,91.72
2023-05-05T02:39:06.504Z,91.17
2023-05-05T02:40:06.712Z,91.42
2023-05-05T02:41:06.477Z,91.72
2023-05-05T02:42:06.498Z,91.62
2023-05-05T02:43:06.516Z,91.11
2023-05-05T02:44:07.450Z,91.21
2023-05-05T02:45:06.518Z,91.62
2023-05-05T02:46:06.479Z,91.62
2023-05-05T02:47:06.473Z,91.42
2023-05-05T02:48:06.461Z,91.31
2023-05-05T02:49:06.412Z,91.15
2023-05-05T02:50:06.551Z,91.93
2023-05-05T02:51:07.399Z,91.83
2023-05-05T02:52:06.421Z,91.83
2023-05-05T02:53:06.394Z,92.24
2023-05-05T02:54:06.417Z,92.65
2023-05-05T02:55:06.376Z,92.76
2023-05-05T02:56:06.393Z,92.69
2023-05-05T02:57:06.381Z,92.59
2023-05-05T02:58:06.345Z,93.21
2023-05-05T02:59:06.328Z,92.90
2023-05-05T03:00:07.429Z,93.21
2023-05-05T03:01:06.394Z,93.11
2023-05-05T03:02:06.326Z,93.11
2023-05-05T03:03:06.422Z,92.69
2023-05-05T03:04:06.324Z,93.11
2023-05-05T03:05:06.291Z,92.55
2023-05-05T03:06:06.313Z,92.59
2023-05-05T03:07:06.271Z,92.76
2023-05-05T03:08:06.273Z,92.76
2023-05-05T03:09:06.272Z,92.65
2023-05-05T03:10:06.574Z,92.96
2023-05-05T03:11:06.270Z,92.86
2023-05-05T03:12:06.262Z,92.76
2023-05-05T03:13:06.268Z,93.16
2023-05-05T03:14:06.229Z,92.14
2023-05-05T03:15:06.244Z,92.71
2023-05-05T03:16:06.233Z,92.14
2023-05-05T03:17:06.237Z,91.58
2023-05-05T03:18:06.337Z,91.93
2023-05-05T03:19:06.184Z,92.14
2023-05-05T03:20:06.350Z,91.93
2023-05-05T03:21:06.170Z,92.44
2023-05-05T03:22:06.154Z,92.34
2023-05-05T03:23:06.150Z,92.86
2023-05-05T03:24:06.146Z,92.34
2023-05-05T03:25:06.164Z,92.24
2023-05-05T03:26:06.127Z,92.59
2023-05-05T03:27:06.128Z,92.14
2023-05-05T03:28:06.115Z,92.80
2023-05-05T03:29:06.139Z,92.69
2023-05-05T03:30:06.295Z,93.11
2023-05-05T03:31:06.097Z,92.29
2023-05-05T03:32:06.202Z,92.86
2023-05-05T03:33:06.106Z,92.90
2023-05-05T03:34:06.093Z,93.31
2023-05-05T03:35:06.083Z,93.21
2023-05-05T03:36:06.059Z,93.31
2023-05-05T03:37:06.048Z,93.41
2023-05-05T03:38:06.040Z,92.55
2023-05-05T03:39:06.126Z,93.27
2023-05-05T03:40:06.182Z,93.01
2023-05-05T03:41:06.007Z,93.01
2023-05-05T03:42:06.004Z,92.59
2023-05-05T03:43:06.000Z,93.21
2023-05-05T03:44:06.027Z,93.21
2023-05-05T03:45:05.981Z,93.41
2023-05-05T03:46:05.989Z,93.73
2023-05-05T03:47:05.973Z,94.03
2023-05-05T03:48:06.015Z,94.24
2023-05-05T03:49:05.992Z,94.24
2023-05-05T03:50:06.092Z,94.13
2023-05-05T03:51:06.004Z,94.13
2023-05-05T03:52:05.925Z,94.24
2023-05-05T03:53:05.948Z,94.03
2023-05-05T03:54:05.917Z,94.13
2023-05-05T03:55:05.900Z,94.24
2023-05-05T03:56:05.893Z,94.13
2023-05-05T03:57:05.890Z,93.83
2023-05-05T03:58:05.916Z,94.13
2023-05-05T03:59:05.873Z,94.03
2023-05-05T04:00:05.939Z,94.65
2023-05-05T04:01:05.860Z,94.45
2023-05-05T04:02:05.952Z,94.13
2023-05-05T04:03:06.002Z,94.03
2023-05-05T04:04:05.932Z,93.52
2023-05-05T04:05:05.833Z,93.73
2023-05-05T04:06:05.822Z,94.03
2023-05-05T04:07:05.871Z,94.34
2023-05-05T04:08:05.829Z,93.31
2023-05-05T04:09:05.794Z,93.52
2023-05-05T04:10:05.895Z,93.41
2023-05-05T04:11:05.792Z,93.52
2023-05-05T04:12:05.805Z,93.41
2023-05-05T04:13:05.814Z,93.31
2023-05-05T04:14:05.756Z,93.52
2023-05-05T04:15:05.754Z,93.31
2023-05-05T04:16:05.800Z,93.62
2023-05-05T04:17:05.767Z,93.52
2023-05-05T04:18:05.771Z,93.41
2023-05-05T04:19:05.725Z,93.31
2023-05-05T04:20:07.248Z,93.99
2023-05-05T04:21:05.737Z,94.60
2023-05-05T04:22:05.693Z,94.30
2023-05-05T04:23:05.757Z,94.09
2023-05-05T04:24:05.679Z,94.09
2023-05-05T04:25:05.682Z,94.09
2023-05-05T04:26:06.336Z,94.20
2023-05-05T04:27:06.027Z,93.27
2023-05-05T04:28:05.710Z,93.95
2023-05-05T04:29:05.650Z,94.05
2023-05-05T04:30:06.006Z,93.96
2023-05-05T04:31:06.006Z,92.38
2023-05-05T04:32:05.804Z,90.75
2023-05-05T04:33:05.804Z,89.62
2023-05-05T04:34:05.891Z,89.64
2023-05-05T04:35:05.746Z,88.17
2023-05-05T04:36:05.757Z,86.99
2023-05-05T04:37:05.668Z,85.72
2023-05-05T04:38:05.657Z,84.56
2023-05-05T04:39:05.700Z,83.91
2023-05-05T04:40:05.705Z,82.84
2023-05-05T04:41:05.623Z,81.85
2023-05-05T04:42:05.536Z,80.69
2023-05-05T04:43:05.568Z,79.63
2023-05-05T04:44:05.678Z,78.71
2023-05-05T04:45:05.579Z,78.41
2023-05-05T04:46:05.613Z,78.30
2023-05-05T04:47:05.624Z,78.13
2023-05-05T04:48:05.641Z,79.70
2023-05-05T04:49:05.523Z,80.11
2023-05-05T04:50:05.468Z,80.11
2023-05-05T04:51:05.473Z,80.66
2023-05-05T04:52:05.463Z,81.62
2023-05-05T04:53:05.437Z,81.72
2023-05-05T04:54:05.483Z,81.88
2023-05-05T04:55:05.430Z,81.17
2023-05-05T04:56:05.412Z,80.90
2023-05-05T04:57:05.433Z,81.35
2023-05-05T04:58:05.402Z,81.79
2023-05-05T04:59:06.272Z,79.97
2023-05-05T05:00:05.748Z,80.20
2023-05-05T05:01:05.372Z,78.39
2023-05-05T05:02:05.403Z,77.44
2023-05-05T05:03:05.449Z,76.22
2023-05-05T05:04:07.151Z,75.54
2023-05-05T05:05:06.348Z,76.15
2023-05-05T05:06:05.334Z,76.19
2023-05-05T05:07:05.337Z,76.80
2023-05-05T05:08:05.363Z,77.55
2023-05-05T05:09:05.314Z,78.20
2023-05-05T05:10:05.431Z,79.80
2023-05-05T05:11:05.298Z,80.73
2023-05-05T05:12:05.296Z,81.07
2023-05-05T05:13:05.402Z,81.62
2023-05-05T05:14:05.279Z,82.34
2023-05-05T05:15:05.284Z,82.78
2023-05-05T05:16:05.318Z,83.39
2023-05-05T05:17:05.300Z,83.09
2023-05-05T05:18:05.305Z,83.05
2023-05-05T05:19:05.276Z,82.95
2023-05-05T05:20:05.282Z,82.70
2023-05-05T05:21:05.227Z,81.77
2023-05-05T05:22:05.241Z,80.75
2023-05-05T05:23:05.230Z,79.90
2023-05-05T05:24:05.198Z,79.89
2023-05-05T05:25:05.195Z,75.91
2023-05-05T05:26:05.191Z,74.45
2023-05-05T05:27:05.604Z,73.84
2023-05-05T05:28:09.642Z,74.76
2023-05-05T05:29:07.161Z,74.48
2023-05-05T05:30:05.229Z,75.84
2023-05-05T05:31:05.164Z,75.91
2023-05-05T05:32:05.189Z,74.35
2023-05-05T05:33:05.183Z,73.50
2023-05-05T05:34:05.118Z,72.85
2023-05-05T05:35:05.124Z,72.25
2023-05-05T05:36:05.130Z,71.57
2023-05-05T05:37:37.853Z,71.47
2023-05-05T05:38:05.100Z,72.04
2023-05-05T05:39:05.083Z,71.50
2023-05-05T05:40:05.076Z,71.09
2023-05-05T05:41:05.088Z,72.17
2023-05-05T05:42:05.068Z,71.30
2023-05-05T05:43:05.070Z,72.82
2023-05-05T05:44:05.053Z,74.21
2023-05-05T05:45:05.080Z,76.56
2023-05-05T05:46:07.499Z,77.21
2023-05-05T05:47:05.028Z,78.85
2023-05-05T05:48:05.046Z,80.32
2023-05-05T05:49:05.003Z,82.70
2023-05-05T05:50:05.029Z,83.46
2023-05-05T05:51:05.024Z,83.87
2023-05-05T05:52:04.974Z,84.14
2023-05-05T05:53:04.988Z,82.70
2023-05-05T05:54:04.986Z,82.77
2023-05-05T05:55:05.998Z,83.07
2023-05-05T05:56:04.956Z,82.53
2023-05-05T05:57:04.948Z,82.49
2023-05-05T05:58:04.941Z,81.46
2023-05-05T05:59:04.942Z,82.28
2023-05-05T06:00:04.952Z,82.53
2023-05-05T06:01:04.929Z,81.77
2023-05-05T06:02:04.956Z,81.57
2023-05-05T06:03:04.960Z,82.39
2023-05-05T06:04:04.987Z,81.90
2023-05-05T06:05:04.915Z,81.23
2023-05-05T06:06:04.875Z,81.46
2023-05-05T06:07:04.872Z,82.04
2023-05-05T06:08:04.867Z,82.14
2023-05-05T06:09:04.880Z,81.29
2023-05-05T06:10:18.514Z,80.33
2023-05-05T06:11:06.835Z,79.79
2023-05-05T06:12:04.863Z,80.23
2023-05-05T06:13:04.865Z,80.56
2023-05-05T06:14:04.843Z,80.05
2023-05-05T06:15:04.808Z,76.76
2023-05-05T06:16:04.847Z,78.05
2023-05-05T06:17:04.791Z,76.42
2023-05-05T06:18:04.799Z,77.06
2023-05-05T06:19:04.794Z,78.22
2023-05-05T06:20:05.535Z,78.22
2023-05-05T06:21:04.769Z,79.24
2023-05-05T06:22:04.748Z,78.39
2023-05-05T06:23:04.775Z,79.34
2023-05-05T06:24:04.759Z,78.42
2023-05-05T06:25:04.744Z,79.14
2023-05-05T06:26:04.736Z,79.24
2023-05-05T06:27:04.710Z,79.34
2023-05-05T06:28:04.760Z,79.75
2023-05-05T06:29:04.694Z,78.93
2023-05-05T06:30:04.680Z,80.29
2023-05-05T06:31:04.700Z,80.26
2023-05-05T06:32:04.696Z,80.02
2023-05-05T06:33:04.732Z,79.71
2023-05-05T06:34:04.654Z,78.08
2023-05-05T06:35:04.672Z,77.84
2023-05-05T06:36:04.721Z,78.19
2023-05-05T06:37:04.697Z,78.08
2023-05-05T06:38:04.681Z,78.15
2023-05-05T06:39:04.644Z,79.16
2023-05-05T06:40:04.609Z,78.89
2023-05-05T06:41:04.675Z,79.25
2023-05-05T06:42:04.622Z,76.28
2023-05-05T06:43:04.607Z,74.95
2023-05-05T06:44:04.595Z,75.83
2023-05-05T06:45:04.574Z,74.68
2023-05-05T06:46:04.561Z,74.68
2023-05-05T06:47:04.625Z,75.19
2023-05-05T06:48:04.572Z,73.93
2023-05-05T06:49:04.631Z,71.26
2023-05-05T06:50:04.535Z,71.06
2023-05-05T06:51:04.685Z,71.64
2023-05-05T06:52:04.573Z,72.11
2023-05-05T06:53:04.520Z,74.44
2023-05-05T06:54:04.522Z,75.87
2023-05-05T06:55:04.512Z,76.10
2023-05-05T06:56:04.546Z,73.97
2023-05-05T06:57:04.488Z,73.83
2023-05-05T06:58:04.470Z,73.33
2023-05-05T06:59:04.461Z,73.09
2023-05-05T07:00:04.460Z,73.70
2023-05-05T07:01:04.517Z,74.34
2023-05-05T07:02:04.447Z,74.78
2023-05-05T07:03:04.467Z,74.71
2023-05-05T07:04:04.471Z,75.76
2023-05-05T07:05:04.500Z,76.68
2023-05-05T07:06:04.436Z,77.86
2023-05-05T07:07:04.599Z,76.54
2023-05-05T07:08:04.418Z,76.85
2023-05-05T07:09:04.394Z,76.20
2023-05-05T07:10:04.427Z,76.34
2023-05-05T07:11:04.424Z,76.85
2023-05-05T07:12:04.373Z,75.93
2023-05-05T07:13:04.444Z,76.24
2023-05-05T07:14:04.364Z,76.17
2023-05-05T07:15:15.494Z,76.98
2023-05-05T07:16:06.385Z,76.54
2023-05-05T07:17:04.357Z,76.10
2023-05-05T07:18:04.369Z,76.03
2023-05-05T07:19:04.338Z,76.00
2023-05-05T07:20:04.355Z,74.85
2023-05-05T07:21:04.459Z,74.30
2023-05-05T07:22:04.301Z,74.37
2023-05-05T07:23:04.369Z,73.36
2023-05-05T07:24:04.302Z,72.55
2023-05-05T07:25:04.277Z,72.96
2023-05-05T07:26:04.267Z,73.25
2023-05-05T07:27:04.257Z,71.40
2023-05-05T07:28:04.251Z,72.08
2023-05-05T07:29:04.267Z,71.47
2023-05-05T07:30:07.892Z,71.33
2023-05-05T07:31:05.221Z,69.89
2023-05-05T07:32:04.268Z,69.78
2023-05-05T07:33:04.315Z,68.20
2023-05-05T07:34:04.222Z,68.40
2023-05-05T07:35:04.199Z,67.63
2023-05-05T07:36:04.190Z,69.27
2023-05-05T07:37:05.206Z,70.05
2023-05-05T07:38:04.203Z,69.04
2023-05-05T07:39:04.269Z,68.54
2023-05-05T07:40:04.185Z,67.39
2023-05-05T07:41:04.144Z,66.86
2023-05-05T07:42:04.130Z,68.17
2023-05-05T07:43:04.147Z,67.26
2023-05-05T07:44:04.115Z,66.89
2023-05-05T07:45:04.124Z,67.26
2023-05-05T07:46:04.208Z,63.79
2023-05-05T07:47:04.128Z,63.16
2023-05-05T07:48:04.138Z,62.60
2023-05-05T07:49:04.071Z,60.55
2023-05-05T07:50:04.098Z,60.83
2023-05-05T07:51:04.058Z,61.90
2023-05-05T07:52:04.075Z,62.07
2023-05-05T07:53:13.579Z,59.53
2023-05-05T07:54:06.043Z,59.20
2023-05-05T07:55:04.133Z,58.70
2023-05-05T07:56:04.029Z,57.19
2023-05-05T07:57:04.053Z,57.09
2023-05-05T07:58:04.015Z,56.59
2023-05-05T07:59:04.014Z,56.59
2023-05-05T08:00:03.992Z,56.06
2023-05-05T08:01:04.024Z,55.23
2023-05-05T08:02:04.001Z,55.73
2023-05-05T08:03:04.070Z,56.21
2023-05-05T08:04:04.124Z,55.60
2023-05-05T08:05:03.954Z,55.20
2023-05-05T08:06:03.983Z,54.10
2023-05-05T08:07:03.945Z,55.30
2023-05-05T08:08:03.936Z,55.00
2023-05-05T08:09:03.942Z,54.50
2023-05-05T08:10:03.952Z,54.80
2023-05-05T08:11:04.030Z,54.40
2023-05-05T08:12:03.902Z,55.20
2023-05-05T08:13:03.912Z,55.10
2023-05-05T08:14:03.908Z,55.51
2023-05-05T08:15:03.931Z,55.58
2023-05-05T08:16:03.912Z,55.85
2023-05-05T08:17:03.894Z,55.25
2023-05-05T08:18:03.985Z,55.25
2023-05-05T08:19:06.242Z,55.65
2023-05-05T08:20:04.874Z,54.75
2023-05-05T08:21:03.850Z,55.15
2023-05-05T08:22:03.839Z,55.95
2023-05-05T08:23:03.826Z,56.05
2023-05-05T08:24:03.858Z,54.15
2023-05-05T08:25:03.866Z,55.25
2023-05-05T08:26:03.794Z,55.15
2023-05-05T08:27:03.902Z,55.65
2023-05-05T08:28:03.788Z,55.63
2023-05-05T08:29:03.803Z,54.50
2023-05-05T08:30:03.757Z,54.22
2023-05-05T08:31:03.771Z,55.13
2023-05-05T08:32:03.799Z,54.32
2023-05-05T08:33:03.783Z,55.70
2023-05-05T08:34:03.814Z,53.52
2023-05-05T08:35:03.720Z,55.32
2023-05-05T08:36:03.734Z,54.32
2023-05-05T08:37:03.703Z,55.25
2023-05-05T08:38:03.733Z,55.35
2023-05-05T08:39:03.709Z,55.38
2023-05-05T08:40:03.679Z,55.38
2023-05-05T08:41:03.702Z,55.60
2023-05-05T08:42:03.664Z,56.71
2023-05-05T08:43:03.855Z,57.08
2023-05-05T08:44:03.694Z,56.88
2023-05-05T08:45:03.646Z,55.55
2023-05-05T08:46:03.637Z,55.05
2023-05-05T08:47:03.786Z,55.75
2023-05-05T08:48:03.690Z,57.03
2023-05-05T08:49:03.648Z,55.93
2023-05-05T08:50:03.621Z,55.85
2023-05-05T08:51:05.356Z,55.52
2023-05-05T08:52:03.628Z,55.25
2023-05-05T08:53:03.746Z,54.95
2023-05-05T08:54:03.622Z,55.73
2023-05-05T08:55:03.566Z,56.43
2023-05-05T08:56:03.565Z,54.90
2023-05-05T08:57:03.575Z,54.67
2023-05-05T08:58:03.537Z,55.35
2023-05-05T08:59:03.654Z,54.72
2023-05-05T09:00:03.551Z,53.02
2023-05-05T09:01:03.531Z,53.52
2023-05-05T09:02:03.561Z,53.52
2023-05-05T09:03:03.552Z,53.39
2023-05-05T09:04:03.506Z,53.59
2023-05-05T09:05:03.484Z,54.37
2023-05-05T09:06:03.506Z,53.84
2023-05-05T09:07:03.494Z,53.72
2023-05-05T09:08:03.465Z,52.22
2023-05-05T09:09:03.467Z,52.02
2023-05-05T09:10:03.466Z,52.55
2023-05-05T09:11:03.733Z,52.74
2023-05-05T09:12:03.467Z,53.34
2023-05-05T09:13:03.464Z,52.82
2023-05-05T09:14:03.521Z,52.62
2023-05-05T09:15:04.320Z,52.14
2023-05-05T09:16:03.659Z,52.97
2023-05-05T09:17:03.414Z,53.17
2023-05-05T09:18:03.428Z,53.49
2023-05-05T09:19:03.392Z,53.59
2023-05-05T09:20:03.400Z,53.09
2023-05-05T09:21:03.392Z,52.80
2023-05-05T09:22:03.359Z,53.69
2023-05-05T09:23:03.353Z,53.57
2023-05-05T09:24:07.849Z,53.17
2023-05-05T09:25:05.593Z,53.49
2023-05-05T09:26:03.342Z,54.49
2023-05-05T09:27:03.323Z,53.59
2023-05-05T09:28:03.321Z,55.57
2023-05-05T09:29:03.337Z,53.97
2023-05-05T09:30:03.347Z,56.20
2023-05-05T09:31:03.401Z,54.77
2023-05-05T09:32:03.328Z,53.57
2023-05-05T09:33:03.332Z,53.27
2023-05-05T09:34:03.329Z,54.27
2023-05-05T09:35:03.286Z,54.39
2023-05-05T09:36:03.252Z,53.59
2023-05-05T09:37:03.293Z,53.52
2023-05-05T09:38:03.239Z,54.22
2023-05-05T09:39:03.262Z,54.39
2023-05-05T09:40:03.245Z,54.69
2023-05-05T09:41:03.230Z,54.69
2023-05-05T09:42:03.258Z,54.39
2023-05-05T09:43:03.360Z,55.36
2023-05-05T09:44:03.236Z,53.04
2023-05-05T09:45:03.181Z,53.07
2023-05-05T09:46:03.199Z,53.04
2023-05-05T09:47:05.681Z,52.55
2023-05-05T09:48:04.205Z,53.72
2023-05-05T09:49:03.183Z,52.82
2023-05-05T09:50:03.167Z,52.92
2023-05-05T09:51:03.147Z,53.31
2023-05-05T09:52:03.165Z,53.02
2023-05-05T09:53:03.152Z,52.92
2023-05-05T09:54:03.154Z,53.61
2023-05-05T09:55:03.116Z,53.04
2023-05-05T09:56:03.109Z,53.14
2023-05-05T09:57:03.190Z,53.57
2023-05-05T09:58:03.160Z,52.84
2023-05-05T09:59:03.122Z,53.54
2023-05-05T10:00:04.181Z,53.44
2023-05-05T10:01:03.070Z,54.34
2023-05-05T10:02:03.126Z,54.17
2023-05-05T10:03:03.416Z,54.54
2023-05-05T10:04:03.036Z,55.07
2023-05-05T10:05:03.079Z,54.84
2023-05-05T10:06:03.029Z,54.74
2023-05-05T10:07:03.057Z,55.11
2023-05-05T10:08:03.041Z,54.91
2023-05-05T10:09:03.012Z,53.61
2023-05-05T10:10:03.040Z,54.49
2023-05-05T10:11:02.990Z,54.39
2023-05-05T10:12:03.014Z,53.79
2023-05-05T10:13:03.015Z,55.58
2023-05-05T10:14:02.970Z,54.53
2023-05-05T10:15:02.970Z,53.04
2023-05-05T10:16:02.965Z,53.61
2023-05-05T10:17:03.124Z,53.34
2023-05-05T10:18:07.436Z,53.44
2023-05-05T10:19:04.995Z,53.96
2023-05-05T10:20:02.925Z,54.24
2023-05-05T10:21:02.966Z,53.14
2023-05-05T10:22:02.925Z,53.27
2023-05-05T10:23:02.908Z,54.14
2023-05-05T10:24:02.923Z,54.01
2023-05-05T10:25:02.893Z,54.04
2023-05-05T10:26:02.915Z,54.41
2023-05-05T10:27:02.866Z,53.89
2023-05-05T10:28:02.861Z,53.27
2023-05-05T10:29:02.865Z,53.16
2023-05-05T10:30:02.852Z,53.16
2023-05-05T10:31:07.670Z,53.14
2023-05-05T10:32:14.107Z,52.84
2023-05-05T10:33:18.240Z,53.19
2023-05-05T10:34:04.912Z,54.71
2023-05-05T10:35:02.932Z,54.41
2023-05-05T10:36:02.833Z,54.51
2023-05-05T10:37:02.809Z,54.51
2023-05-05T10:38:02.785Z,54.79
2023-05-05T10:39:02.790Z,53.27
2023-05-05T10:40:02.774Z,53.04
2023-05-05T10:41:02.793Z,53.11
2023-05-05T10:42:02.761Z,52.64
2023-05-05T10:43:02.748Z,54.53
2023-05-05T10:44:04.599Z,54.24
2023-05-05T10:45:03.797Z,53.61
2023-05-05T10:46:02.788Z,52.94
2023-05-05T10:47:02.734Z,54.80
2023-05-05T10:48:02.765Z,52.74
2023-05-05T10:49:02.749Z,53.04
2023-05-05T10:50:02.732Z,54.21
2023-05-05T10:51:02.867Z,56.02
2023-05-05T10:52:02.691Z,54.96
2023-05-05T10:53:02.674Z,56.02
2023-05-05T10:54:02.696Z,53.44
2023-05-05T10:55:02.687Z,55.10
2023-05-05T10:56:02.657Z,54.41
2023-05-05T10:57:02.667Z,54.01
2023-05-05T10:58:02.641Z,53.49
2023-05-05T10:59:02.653Z,52.89
2023-05-05T11:00:02.650Z,52.56
2023-05-05T11:01:02.646Z,52.07
2023-05-05T11:02:03.610Z,53.66
2023-05-05T11:03:02.707Z,54.58
2023-05-05T11:04:02.699Z,53.11
2023-05-05T11:05:02.585Z,54.49
2023-05-05T11:06:02.604Z,54.14
2023-05-05T11:07:02.624Z,56.88
2023-05-05T11:08:02.574Z,56.51
2023-05-05T11:09:02.590Z,57.84
2023-05-05T11:10:02.564Z,57.76
2023-05-05T11:11:02.549Z,58.19
2023-05-05T11:12:02.550Z,57.62
2023-05-05T11:13:02.655Z,58.52
2023-05-05T11:14:02.545Z,60.16
2023-05-05T11:15:02.519Z,57.97
2023-05-05T11:16:02.510Z,59.66
2023-05-05T11:17:02.571Z,60.27
2023-05-05T11:18:05.880Z,58.64
2023-05-05T11:19:03.507Z,57.67
2023-05-05T11:20:02.497Z,58.69
2023-05-05T11:21:02.494Z,59.12
2023-05-05T11:22:02.458Z,59.02
2023-05-05T11:23:02.551Z,58.82
2023-05-05T11:24:03.442Z,58.89
2023-05-05T11:25:02.428Z,58.72
2023-05-05T11:26:02.425Z,60.52
2023-05-05T11:27:02.424Z,58.99
2023-05-05T11:28:02.438Z,57.97
2023-05-05T11:29:02.402Z,59.83
2023-05-05T11:30:02.429Z,59.06
2023-05-05T11:31:02.406Z,58.47
2023-05-05T11:32:02.401Z,58.73
2023-05-05T11:33:02.438Z,59.14
2023-05-05T11:34:02.370Z,57.46
2023-05-05T11:35:02.351Z,58.56
2023-05-05T11:36:05.109Z,59.49
2023-05-05T11:37:03.385Z,60.14
2023-05-05T11:38:35.037Z,59.83
2023-05-05T11:39:02.331Z,58.81
2023-05-05T11:40:02.314Z,58.41
2023-05-05T11:41:02.316Z,59.81
2023-05-05T11:42:06.608Z,58.58
2023-05-05T11:43:04.309Z,57.57
2023-05-05T11:44:02.280Z,58.92
2023-05-05T11:45:02.306Z,59.02
2023-05-05T11:46:02.310Z,58.95
2023-05-05T11:47:02.301Z,59.12
2023-05-05T11:48:02.306Z,59.32
2023-05-05T11:49:02.241Z,58.92
2023-05-05T11:50:02.237Z,59.82
2023-05-05T11:51:02.257Z,59.92
2023-05-05T11:52:02.286Z,60.10
2023-05-05T11:53:02.983Z,58.89
2023-05-05T11:54:02.259Z,58.80
2023-05-05T11:55:02.201Z,59.30
2023-05-05T11:56:03.225Z,58.47
2023-05-05T11:57:02.196Z,60.19
2023-05-05T11:58:02.175Z,59.27
2023-05-05T11:59:02.164Z,58.21
2023-05-05T12:00:02.210Z,58.14
2023-05-05T12:01:02.182Z,56.81
2023-05-05T12:02:02.197Z,57.48
2023-05-05T12:03:02.348Z,57.41
2023-05-05T12:04:02.224Z,59.08
2023-05-05T12:05:02.185Z,58.28
2023-05-05T12:06:02.115Z,57.84
2023-05-05T12:07:02.121Z,59.27
2023-05-05T12:08:02.110Z,58.97
2023-05-05T12:09:02.111Z,59.23
2023-05-05T12:10:02.182Z,57.37
2023-05-05T12:11:02.074Z,59.97
2023-05-05T12:12:02.071Z,60.16
2023-05-05T12:13:02.079Z,59.23
2023-05-05T12:14:02.104Z,58.67
2023-05-05T12:15:02.076Z,59.34
2023-05-05T12:16:02.090Z,57.84
2023-05-05T12:17:02.033Z,58.94
2023-05-05T12:18:03.073Z,57.84
2023-05-05T12:19:03.051Z,57.97
2023-05-05T12:20:02.009Z,57.89
2023-05-05T12:21:02.011Z,59.06
2023-05-05T12:22:01.992Z,58.97
2023-05-05T12:23:01.990Z,59.01
2023-05-05T12:24:02.004Z,58.38
2023-05-05T12:25:01.971Z,58.81
2023-05-05T12:26:02.016Z,59.70
2023-05-05T12:27:01.949Z,57.58
2023-05-05T12:28:01.973Z,56.68
2023-05-05T12:29:01.959Z,55.02
2023-05-05T12:30:01.928Z,55.44
2023-05-05T12:31:01.994Z,57.01
2023-05-05T12:32:01.977Z,56.81
2023-05-05T12:33:01.939Z,56.18
2023-05-05T12:34:01.925Z,56.18
2023-05-05T12:35:01.901Z,53.79
2023-05-05T12:36:01.881Z,54.46
2023-05-05T12:37:01.882Z,56.09
2023-05-05T12:38:01.894Z,56.79
2023-05-05T12:39:01.872Z,54.83
2023-05-05T12:40:01.856Z,55.43
2023-05-05T12:41:01.845Z,56.01
2023-05-05T12:42:01.924Z,54.01
2023-05-05T12:43:01.864Z,55.11
2023-05-05T12:44:01.832Z,54.71
2023-05-05T12:45:01.835Z,54.64
2023-05-05T12:46:01.851Z,55.09
2023-05-05T12:47:01.828Z,55.66
2023-05-05T12:48:01.912Z,55.58
2023-05-05T12:49:01.785Z,56.18
2023-05-05T12:50:01.774Z,56.68
2023-05-05T12:51:01.776Z,56.56
2023-05-05T12:52:01.792Z,55.36